Angisoq

KL  EN  DA
ASIAQ
Weather Now GREENLAND SURVEY
Updated [WGT/WGST] Temperature [°C] Wind [m/s] Air pressure [hPa] Relative humidity [%] Precipitation [mm]
Present Wind chill Speed Max
17.01 13:00-0,90,00,5 ⇘1,0101693n/a
17.01 12:00-1,1-4,42,6 ⇙3,1101694n/a
17.01 11:00-0,90,01,0 ⇐1,5101694n/a
17.01 10:00-1,2-3,11,5 ⇖2,1101695n/a
17.01 09:00-1,4-4,82,6 ⇐3,1101594n/a
17.01 08:00-1,6-5,02,6 ⇐3,1101590n/a
17.01 07:00-2,1-5,02,1 ⇐2,6101596n/a
17.01 06:00-1,9-4,82,1 ⇙2,6101589n/a
17.01 05:00-1,7-4,62,1 ⇐2,6101482n/a
17.01 04:00-1,5-3,51,5 ⇙1,5101481n/a
17.01 03:00-1,7-4,62,1 ⇘4,1101474n/a
17.01 02:00-2,1-5,02,1 ⇒2,6101476n/a
17.01 01:00-1,8-4,72,1 ⇘2,6101474n/a
17.01 00:00-2,2-5,72,6 ⇒3,1101477n/a
16.01 23:00-1,70,01,0 ⇘1,5101471n/a
16.01 22:00-1,4-4,82,6 ⇓3,1101468n/a
16.01 21:00-1,7-3,71,5 ⇘2,1101471n/a
16.01 20:00n/an/an/an/an/an/an/a
16.01 19:00-1,6-6,74,6 ⇘5,7101370n/a
16.01 18:00-1,4-7,87,2 ⇘8,2101365n/a
16.01 17:00-1,4-8,58,8 ⇘10,3101368n/a
16.01 16:00-1,3-8,38,8 ⇘11,3101370n/a
16.01 15:00-1,3-8,59,3 ⇘11,3101371n/a
16.01 14:00-1,2-8,08,2 ⇘9,8101271n/a
16.01 13:00-1,3-8,38,8 ⇘10,3101374n/a
Position: (59.9911111111,-45.14611111)

[Back]